Kunyang, China
Current Conditions -  °F | °C
As of 3:00 AM on Monday 22 Dec 2014 (Local Time) from ZPPP Reporting Station
Broken Clouds Broken Clouds  
Wind Chill: 24°   Ceiling: 3300
Heat Index: 32°   Visibility: 4mi
Dew Point: 32°   Wind: 9mph
Humidity: 100%   Direction: 210°SSW
Pressure: 30.3"   Gusts: NA
Location:  24.67°N, 102.59°E
Report Text: ZPPP 211900Z 21004MPS 6000 SCT016 BKN033 00/00 Q1026 NOSIG
Loading
Personal Weather Stations






























Interactive Weather Map New forecast layout! Learn more

10-Day Weather Forecast

Advertisements
Track Severe Weather on mobile